Terminal Aerodrome Forecast
Issued by NWS

Home | Current Version | Previous Version | Text Only | Print | Product List | Glossary On
Versions: 1 2 3 4 5 6 7 8 9 10 11 12 13 14
000
FTUS44 KLIX 231100
TAFGPT
TAF
KGPT 231120Z 2312/2412 VRB03KT P6SM SCT150
     FM231500 00000KT P6SM SCT030 BKN050
     FM231700 18006KT P6SM VCSH BKN050 BKN150
      TEMPO 2318/2322 3SM TSRA BKN035CB
     FM240200 VRB03KT P6SM SCT150=

USA.gov is the U.S. government's official web portal to all federal, state and local government web resources and services.